Latest Weather Observations for Sellicks Hill

IDS60801

Issued at 10:51 pm CDT Friday 23 October 2020 (issued every 10 minutes, with the page automatically refreshed every 10 minutes)

About weather observations | Map of weather stations | Latest weather observations for SA | Other Formats
Station Details ID: 023886 Name: MOUNT TERRIBLE RADAR Lat: -35.33 Lon: 138.50 Height: 385.7 m
Data from the previous 72 hours. | See also: Recent months at Sellicks Hill
Date/Time
CDT
Temp
°C
App
Temp
°C
Dew
Point
°C
Rel
Hum
%
Delta-T
°C
Wind Press
QNH
hPa
Press
MSL
hPa
Rain since
9am
mm
Dir  Spd
km/h
Gust
km/h
Spd
kts
Gust
kts
23/10:30pm - - - - - S 54 69 29 37 - - -
23/10:00pm - - - - - SSE 44 57 24 31 - - -
23/09:30pm - - - - - SSE 43 57 23 31 - - -
23/09:14pm - - - - - SSE 44 63 24 34 - - -
23/09:00pm - - - - - SSE 57 70 31 38 - - -
23/08:30pm - - - - - SSE 63 76 34 41 - - -
23/08:00pm - - - - - SSE 69 83 37 45 - - -
23/07:30pm - - - - - SSE 59 69 32 37 - - -
23/07:00pm - - - - - SSE 57 72 31 39 - - -
23/06:30pm - - - - - SSE 59 67 32 36 - - -
23/06:00pm - - - - - SSE 52 61 28 33 - - -
23/05:30pm - - - - - SSE 52 65 28 35 - - -
23/05:00pm - - - - - SSE 52 61 28 33 - - -
23/04:30pm - - - - - SSE 52 61 28 33 - - -
23/04:00pm - - - - - SSE 50 57 27 31 - - -
23/03:30pm - - - - - SSE 48 57 26 31 - - -
23/03:00pm - - - - - SSE 41 52 22 28 - - -
23/02:30pm - - - - - SSE 43 54 23 29 - - -
23/02:00pm - - - - - SE 35 46 19 25 - - -
23/01:30pm - - - - - SSE 41 48 22 26 - - -
23/01:00pm - - - - - SSE 46 54 25 29 - - -
23/12:30pm - - - - - SSE 43 50 23 27 - - -
23/12:00pm - - - - - SSE 41 52 22 28 - - -
23/11:30am - - - - - SSE 37 48 20 26 - - -
23/11:00am - - - - - SSE 37 46 20 25 - - -
23/10:30am - - - - - SSE 33 41 18 22 - - -
23/10:00am - - - - - SSE 35 44 19 24 - - -
23/09:30am - - - - - SE 33 43 18 23 - - -
23/09:00am - - - - - SE 33 39 18 21 - - -
23/08:30am - - - - - SE 33 43 18 23 - - -
23/08:00am - - - - - SSE 35 43 19 23 - - -
23/07:30am - - - - - SSE 35 41 19 22 - - -
23/07:00am - - - - - SSE 32 39 17 21 - - -
23/06:30am - - - - - SSE 32 37 17 20 - - -
23/06:00am - - - - - SE 37 41 20 22 - - -
23/05:30am - - - - - SSE 39 43 21 23 - - -
23/05:00am - - - - - SSE 32 41 17 22 - - -
23/04:30am - - - - - SE 30 33 16 18 - - -
23/04:00am - - - - - SE 28 33 15 18 - - -
23/03:30am - - - - - SE 24 28 13 15 - - -
23/03:00am - - - - - ESE 24 37 13 20 - - -
23/02:30am - - - - - E 30 43 16 23 - - -
23/02:00am - - - - - E 28 39 15 21 - - -
23/01:30am - - - - - ESE 20 30 11 16 - - -
23/01:00am - - - - - ESE 26 41 14 22 - - -
23/12:30am - - - - - ESE 28 43 15 23 - - -
23/12:00am - - - - - E 30 41 16 22 - - -
 
Date/Time
CDT
Temp
°C
App
Temp
°C
Dew
Point
°C
Rel
Hum
%
Delta-T
°C
Wind Press
QNH
hPa
Press
MSL
hPa
Rain since
9am
mm
Dir  Spd
km/h
Gust
km/h
Spd
kts
Gust
kts
22/11:30pm - - - - - ESE 26 39 14 21 - - -
22/11:00pm - - - - - ESE 24 35 13 19 - - -
22/10:30pm - - - - - ESE 24 35 13 19 - - -
22/10:00pm - - - - - ESE 22 32 12 17 - - -
22/09:30pm - - - - - ESE 22 33 12 18 - - -
22/09:00pm - - - - - SE 17 30 9 16 - - -
22/08:30pm - - - - - SE 26 32 14 17 - - -
22/08:00pm - - - - - SE 33 41 18 22 - - -
22/07:30pm - - - - - SE 30 35 16 19 - - -
22/07:00pm - - - - - SE 19 26 10 14 - - -
22/06:30pm - - - - - SE 19 24 10 13 - - -
22/06:00pm - - - - - SE 19 22 10 12 - - -
22/05:30pm - - - - - SE 15 20 8 11 - - -
22/05:00pm - - - - - SE 17 24 9 13 - - -
22/04:30pm - - - - - SE 20 26 11 14 - - -
22/04:00pm - - - - - ESE 15 24 8 13 - - -
22/03:30pm - - - - - ESE 15 19 8 10 - - -
22/03:00pm - - - - - ESE 15 20 8 11 - - -
22/02:30pm - - - - - ESE 15 20 8 11 - - -
22/02:00pm - - - - - ESE 17 24 9 13 - - -
22/01:30pm - - - - - SE 20 26 11 14 - - -
22/01:00pm - - - - - ESE 19 28 10 15 - - -
22/12:30pm - - - - - ESE 22 32 12 17 - - -
22/12:00pm - - - - - ESE 22 33 12 18 - - -
22/11:30am - - - - - ESE 22 32 12 17 - - -
22/11:00am - - - - - ESE 20 32 11 17 - - -
22/10:30am - - - - - ESE 20 28 11 15 - - -
22/10:00am - - - - - SE 22 32 12 17 - - -
22/09:30am - - - - - SE 22 30 12 16 - - -
22/09:00am - - - - - ESE 17 28 9 15 - - -
22/08:30am - - - - - ESE 19 28 10 15 - - -
22/08:00am - - - - - ESE 20 32 11 17 - - -
22/07:30am - - - - - ESE 19 28 10 15 - - -
22/07:00am - - - - - ESE 20 26 11 14 - - -
22/06:30am - - - - - ESE 20 26 11 14 - - -
22/06:00am - - - - - ESE 20 30 11 16 - - -
22/05:30am - - - - - SE 24 30 13 16 - - -
22/05:00am - - - - - SE 24 30 13 16 - - -
22/04:30am - - - - - SE 26 33 14 18 - - -
22/04:00am - - - - - SE 26 30 14 16 - - -
22/03:30am - - - - - SE 28 32 15 17 - - -
22/03:00am - - - - - SE 28 35 15 19 - - -
22/02:30am - - - - - SE 32 37 17 20 - - -
22/02:00am - - - - - SE 30 32 16 17 - - -
22/01:30am - - - - - SE 28 33 15 18 - - -
22/01:00am - - - - - SE 32 37 17 20 - - -
22/12:30am - - - - - SSE 35 41 19 22 - - -
22/12:00am - - - - - SE 32 37 17 20 - - -
 
Date/Time
CDT
Temp
°C
App
Temp
°C
Dew
Point
°C
Rel
Hum
%
Delta-T
°C
Wind Press
QNH
hPa
Press
MSL
hPa
Rain since
9am
mm
Dir  Spd
km/h
Gust
km/h
Spd
kts
Gust
kts
21/11:30pm - - - - - SE 35 41 19 22 - - -
21/11:00pm - - - - - SE 35 41 19 22 - - -
21/10:30pm - - - - - SE 35 41 19 22 - - -
21/10:00pm - - - - - SE 35 39 19 21 - - -
21/09:30pm - - - - - SE 33 39 18 21 - - -
21/09:00pm - - - - - SSE 32 35 17 19 - - -
21/08:30pm - - - - - SSE 32 35 17 19 - - -
21/08:00pm - - - - - SSE 32 35 17 19 - - -
21/07:30pm - - - - - SSE 32 35 17 19 - - -
21/07:00pm - - - - - SSE 33 37 18 20 - - -
21/06:30pm - - - - - SSE 32 35 17 19 - - -
21/06:00pm - - - - - SSE 30 35 16 19 - - -
21/05:30pm - - - - - SSE 28 32 15 17 - - -
21/05:00pm - - - - - SSE 28 32 15 17 - - -
21/04:30pm - - - - - SE 20 28 11 15 - - -
21/04:00pm - - - - - SE 22 28 12 15 - - -
21/03:30pm - - - - - SE 20 24 11 13 - - -
21/03:00pm - - - - - SE 17 22 9 12 - - -
21/02:30pm - - - - - SE 17 24 9 13 - - -
21/02:00pm - - - - - ESE 11 15 6 8 - - -
21/01:30pm - - - - - E 11 15 6 8 - - -
21/01:00pm - - - - - SE 11 15 6 8 - - -
21/12:30pm - - - - - SE 13 20 7 11 - - -
21/12:00pm - - - - - SE 17 22 9 12 - - -
21/11:30am - - - - - SE 17 24 9 13 - - -
21/11:00am - - - - - SE 20 28 11 15 - - -
21/10:30am - - - - - SE 22 30 12 16 - - -
21/10:00am - - - - - SSE 28 32 15 17 - - -
21/09:30am - - - - - SE 28 33 15 18 - - -
21/09:00am - - - - - SE 28 30 15 16 - - -
21/08:30am - - - - - SE 26 32 14 17 - - -
21/08:00am - - - - - SE 26 32 14 17 - - -
21/07:30am - - - - - SE 26 32 14 17 - - -
21/07:00am - - - - - SE 26 32 14 17 - - -
21/06:30am - - - - - SE 28 33 15 18 - - -
21/06:00am - - - - - SE 26 32 14 17 - - -
21/05:30am - - - - - SE 24 28 13 15 - - -
21/05:00am - - - - - SE 24 28 13 15 - - -
21/04:30am - - - - - SE 26 30 14 16 - - -
21/04:00am - - - - - SE 24 30 13 16 - - -
21/03:30am - - - - - SE 26 30 14 16 - - -
21/03:00am - - - - - SE 24 28 13 15 - - -
21/02:30am - - - - - SE 26 32 14 17 - - -
21/02:00am - - - - - SE 26 32 14 17 - - -
21/01:30am - - - - - SE 26 32 14 17 - - -
21/01:00am - - - - - SE 24 30 13 16 - - -
21/12:30am - - - - - SE 28 33 15 18 - - -
21/12:00am - - - - - SE 28 33 15 18 - - -
 
Date/Time
CDT
Temp
°C
App
Temp
°C
Dew
Point
°C
Rel
Hum
%
Delta-T
°C
Wind Press
QNH
hPa
Press
MSL
hPa
Rain since
9am
mm
Dir  Spd
km/h
Gust
km/h
Spd
kts
Gust
kts
20/11:30pm - - - - - SE 28 33 15 18 - - -
20/11:00pm - - - - - SE 30 32 16 17 - - -

Other formats

Comma delimited format used in spreadsheet applications
http://www.bom.gov.au/fwo/IDS60801/IDS60801.95679.axf

JavaScript Object Notation format (JSON) in row-major order
http://www.bom.gov.au/fwo/IDS60801/IDS60801.95679.json

Data quality

Most of these data are generated automatically and are frequently updated. Quality checks on data are not normally performed. It is possible for incorrect values to appear. Refer to information at About Latest Weather Observations and please check the disclaimer before using these data.